createdAt,value
2018-06-27T00:02:37.641Z,14.50
2018-06-27T00:06:41.295Z,14.50
2018-06-27T00:10:44.983Z,14.40
2018-06-27T00:14:48.724Z,14.30
2018-06-27T00:18:52.464Z,14.20
2018-06-27T00:23:02.428Z,14.20
2018-06-27T00:27:06.083Z,14.10
2018-06-27T00:31:09.785Z,14.10
2018-06-27T00:35:13.498Z,14.10
2018-06-27T00:39:17.131Z,14.10
2018-06-27T00:43:20.806Z,14.00
2018-06-27T00:47:24.567Z,14.00
2018-06-27T00:51:28.234Z,14.00
2018-06-27T00:55:32.105Z,13.90
2018-06-27T00:59:35.724Z,13.90
2018-06-27T01:03:39.400Z,13.90
2018-06-27T01:07:43.159Z,13.90
2018-06-27T01:11:46.852Z,13.90
2018-06-27T01:15:50.681Z,13.80
2018-06-27T01:19:54.334Z,13.80
2018-06-27T01:23:58.028Z,13.80
2018-06-27T01:28:01.705Z,13.70
2018-06-27T01:32:05.427Z,13.70
2018-06-27T01:36:09.181Z,13.70
2018-06-27T01:40:13.219Z,13.70
2018-06-27T01:44:16.876Z,13.60
2018-06-27T01:48:20.568Z,13.60
2018-06-27T01:52:24.236Z,13.60
2018-06-27T01:56:27.919Z,13.50
2018-06-27T02:00:31.622Z,13.40
2018-06-27T02:04:35.267Z,13.40
2018-06-27T02:12:42.367Z,13.30
2018-06-27T02:16:46.226Z,13.30
2018-06-27T02:20:49.914Z,13.30
2018-06-27T02:24:53.586Z,13.20
2018-06-27T02:28:57.339Z,13.20
2018-06-27T02:33:01.393Z,13.20
2018-06-27T02:37:05.193Z,13.10
2018-06-27T02:41:08.876Z,13.10
2018-06-27T02:45:12.594Z,13.10
2018-06-27T02:49:16.271Z,13.00
2018-06-27T02:53:19.980Z,13.00
2018-06-27T02:57:23.665Z,13.00
2018-06-27T03:01:27.425Z,12.90
2018-06-27T03:05:31.069Z,12.90
2018-06-27T03:09:34.761Z,12.90
2018-06-27T03:13:38.470Z,12.80
2018-06-27T03:17:45.230Z,12.80
2018-06-27T03:21:48.976Z,12.80
2018-06-27T03:25:52.901Z,12.80
2018-06-27T03:29:56.573Z,12.80
2018-06-27T03:34:00.241Z,12.70
2018-06-27T03:38:03.924Z,12.70
2018-06-27T03:42:07.707Z,12.60
2018-06-27T03:46:11.339Z,12.70
2018-06-27T03:50:15.033Z,12.70
2018-06-27T03:54:18.724Z,12.70
2018-06-27T03:58:22.421Z,12.70
2018-06-27T04:02:26.112Z,12.70
2018-06-27T04:06:29.781Z,12.70
2018-06-27T04:10:33.466Z,12.80
2018-06-27T04:14:37.196Z,12.80
2018-06-27T04:18:40.976Z,12.80
2018-06-27T04:22:44.730Z,12.90
2018-06-27T04:26:48.378Z,12.90
2018-06-27T04:30:52.099Z,12.90
2018-06-27T04:34:56.177Z,13.00
2018-06-27T04:38:59.825Z,13.00
2018-06-27T04:43:04.205Z,13.00
2018-06-27T04:47:07.951Z,13.10
2018-06-27T04:51:11.630Z,13.10
2018-06-27T04:55:15.292Z,13.20
2018-06-27T04:59:18.970Z,13.20
2018-06-27T05:03:22.676Z,13.30
2018-06-27T05:07:26.331Z,13.40
2018-06-27T05:11:30.022Z,13.40
2018-06-27T05:15:33.730Z,13.50
2018-06-27T05:19:42.454Z,13.60
2018-06-27T05:23:46.143Z,13.70
2018-06-27T05:27:49.833Z,13.80
2018-06-27T05:31:53.603Z,13.90
2018-06-27T05:35:57.276Z,14.10
2018-06-27T05:40:00.944Z,14.10
2018-06-27T05:44:04.892Z,14.40
2018-06-27T05:48:09.116Z,14.40
2018-06-27T05:52:13.709Z,14.50
2018-06-27T05:56:17.391Z,14.70
2018-06-27T06:00:21.058Z,14.80
2018-06-27T06:04:24.933Z,15.00
2018-06-27T06:08:28.656Z,15.00
2018-06-27T06:12:32.848Z,15.20
2018-06-27T06:16:36.700Z,15.30
2018-06-27T06:20:40.440Z,15.30
2018-06-27T06:24:45.365Z,15.40
2018-06-27T06:28:49.053Z,15.40
2018-06-27T06:32:52.668Z,15.50
2018-06-27T06:36:59.710Z,15.60
2018-06-27T06:41:03.426Z,15.60
2018-06-27T06:45:07.163Z,15.70
2018-06-27T06:49:10.844Z,15.80
2018-06-27T06:53:14.551Z,15.90
2018-06-27T06:57:18.235Z,16.00
2018-06-27T07:01:21.931Z,16.10
2018-06-27T07:05:25.675Z,16.20
2018-06-27T07:09:29.380Z,16.40
2018-06-27T07:13:33.138Z,16.50
2018-06-27T07:17:37.054Z,16.90
2018-06-27T07:21:40.792Z,17.60
2018-06-27T07:25:44.522Z,18.40
2018-06-27T07:29:48.240Z,18.90
2018-06-27T07:33:52.001Z,19.10
2018-06-27T07:37:55.739Z,19.20
2018-06-27T07:41:59.546Z,19.30
2018-06-27T07:46:03.407Z,19.70
2018-06-27T07:50:07.146Z,20.50
2018-06-27T07:54:10.851Z,21.60
2018-06-27T07:58:14.579Z,22.70
2018-06-27T08:02:19.775Z,23.60
2018-06-27T08:06:24.268Z,24.30
2018-06-27T08:10:27.987Z,24.90
2018-06-27T08:14:31.709Z,25.30
2018-06-27T08:18:40.674Z,25.60
2018-06-27T08:22:44.372Z,25.90
2018-06-27T08:26:48.913Z,26.30
2018-06-27T08:30:52.747Z,26.70
2018-06-27T08:34:56.773Z,27.30
2018-06-27T08:39:00.672Z,27.30
2018-06-27T08:43:04.678Z,27.90
2018-06-27T08:47:08.544Z,27.90
2018-06-27T08:51:12.420Z,28.10
2018-06-27T08:55:16.275Z,28.20
2018-06-27T08:59:20.166Z,28.40
2018-06-27T09:03:24.128Z,28.60
2018-06-27T09:07:28.037Z,28.80
2018-06-27T09:11:31.940Z,29.00
2018-06-27T09:15:42.469Z,29.20
2018-06-27T09:19:46.381Z,29.10
2018-06-27T09:23:50.265Z,29.10
2018-06-27T09:27:54.174Z,29.20
2018-06-27T09:32:00.382Z,29.10
2018-06-27T09:36:10.689Z,29.10
2018-06-27T09:40:14.715Z,27.90
2018-06-27T09:44:18.398Z,27.40
2018-06-27T09:48:22.649Z,27.30
2018-06-27T09:52:26.352Z,26.90
2018-06-27T09:56:30.061Z,26.60
2018-06-27T10:00:39.294Z,26.10
2018-06-27T10:04:42.991Z,26.10
2018-06-27T10:08:46.683Z,25.80
2018-06-27T10:12:50.375Z,25.70
2018-06-27T10:16:54.423Z,25.60
2018-06-27T10:20:58.269Z,25.60
2018-06-27T10:25:02.050Z,25.50
2018-06-27T10:29:05.771Z,25.50
2018-06-27T10:33:09.553Z,25.50
2018-06-27T10:37:13.280Z,25.60
2018-06-27T10:41:16.984Z,25.50
2018-06-27T10:45:20.658Z,25.50
2018-06-27T10:49:24.480Z,25.50
2018-06-27T10:53:28.989Z,25.40
2018-06-27T10:57:32.996Z,25.40
2018-06-27T11:01:36.888Z,25.50
2018-06-27T11:05:40.829Z,25.50
2018-06-27T11:09:44.801Z,25.50
2018-06-27T11:13:48.679Z,25.50
2018-06-27T11:17:53.085Z,25.50
2018-06-27T11:21:57.376Z,25.50
2018-06-27T11:26:02.341Z,25.50
2018-06-27T11:30:06.825Z,25.50
2018-06-27T11:34:11.536Z,25.70
2018-06-27T11:38:15.410Z,25.70
2018-06-27T11:42:19.308Z,25.80
2018-06-27T11:46:23.206Z,25.80
2018-06-27T11:50:27.179Z,25.90
2018-06-27T11:54:31.115Z,26.00
2018-06-27T11:58:35.009Z,26.10
2018-06-27T12:02:39.345Z,26.20
2018-06-27T12:06:43.180Z,26.30
2018-06-27T12:10:47.124Z,26.40
2018-06-27T12:14:50.913Z,26.60
2018-06-27T12:18:54.600Z,26.70
2018-06-27T12:22:58.284Z,26.80
2018-06-27T12:27:01.968Z,27.00
2018-06-27T12:31:05.671Z,27.10
2018-06-27T12:35:09.380Z,27.20
2018-06-27T12:39:13.135Z,27.30
2018-06-27T12:43:16.856Z,27.30
2018-06-27T12:47:20.533Z,27.40
2018-06-27T12:51:24.373Z,27.50
2018-06-27T12:55:28.077Z,27.50
2018-06-27T12:59:31.753Z,27.50
2018-06-27T13:03:35.446Z,27.50
2018-06-27T13:07:39.320Z,27.60
2018-06-27T13:11:43.940Z,27.60
2018-06-27T13:15:47.758Z,27.80
2018-06-27T13:19:51.588Z,28.00
2018-06-27T13:23:55.475Z,28.10
2018-06-27T13:27:59.289Z,28.30
2018-06-27T13:32:03.418Z,28.40
2018-06-27T13:36:07.186Z,28.50
2018-06-27T13:40:13.222Z,28.60
2018-06-27T13:44:16.979Z,28.80
2018-06-27T13:48:20.833Z,28.80
2018-06-27T13:52:24.757Z,28.90
2018-06-27T13:56:28.656Z,29.00
2018-06-27T14:00:32.471Z,29.10
2018-06-27T14:04:36.421Z,29.10
2018-06-27T14:08:40.562Z,29.10
2018-06-27T14:12:44.468Z,29.20
2018-06-27T14:16:48.492Z,29.40
2018-06-27T14:20:52.674Z,29.40
2018-06-27T14:24:56.712Z,29.60
2018-06-27T14:29:00.435Z,29.60
2018-06-27T14:33:04.153Z,29.70
2018-06-27T14:37:07.872Z,29.70
2018-06-27T14:41:11.914Z,29.50
2018-06-27T14:45:15.842Z,29.10
2018-06-27T14:49:19.537Z,29.00
2018-06-27T14:53:23.191Z,29.00
2018-06-27T14:57:26.890Z,29.10
2018-06-27T15:01:30.577Z,29.20
2018-06-27T15:05:34.273Z,29.20
2018-06-27T15:09:37.952Z,29.40
2018-06-27T15:13:42.624Z,29.50
2018-06-27T15:17:46.296Z,29.50
2018-06-27T15:21:49.951Z,29.40
2018-06-27T15:25:53.742Z,29.30
2018-06-27T15:29:57.395Z,29.10
2018-06-27T15:34:01.056Z,28.90
2018-06-27T15:38:04.884Z,28.60
2018-06-27T15:42:08.588Z,28.50
2018-06-27T15:46:12.271Z,28.60
2018-06-27T15:50:18.916Z,28.80
2018-06-27T15:54:22.550Z,28.80
2018-06-27T15:58:26.270Z,28.70
2018-06-27T16:02:29.947Z,28.30
2018-06-27T16:06:33.627Z,28.00
2018-06-27T16:10:37.327Z,27.90
2018-06-27T16:14:41.033Z,27.90
2018-06-27T16:18:44.683Z,27.90
2018-06-27T16:22:48.444Z,27.90
2018-06-27T16:26:52.116Z,28.00
2018-06-27T16:30:55.795Z,28.10
2018-06-27T16:34:59.431Z,28.20
2018-06-27T16:39:03.704Z,28.10
2018-06-27T16:43:07.451Z,28.00
2018-06-27T16:47:11.643Z,28.00
2018-06-27T16:51:15.504Z,28.00
2018-06-27T16:55:19.144Z,28.10
2018-06-27T16:59:22.956Z,28.10
2018-06-27T17:03:26.617Z,28.20
2018-06-27T17:07:30.356Z,28.20
2018-06-27T17:11:33.993Z,28.20
2018-06-27T17:15:37.659Z,28.20
2018-06-27T17:19:41.333Z,28.30
2018-06-27T17:23:45.022Z,28.30
2018-06-27T17:27:48.697Z,28.40
2018-06-27T17:31:52.384Z,28.40
2018-06-27T17:35:56.042Z,28.40
2018-06-27T17:39:59.740Z,28.50
2018-06-27T17:44:03.549Z,28.50
2018-06-27T17:48:07.237Z,28.60
2018-06-27T17:52:10.938Z,28.60
2018-06-27T17:56:14.633Z,28.60
2018-06-27T18:00:18.324Z,28.50
2018-06-27T18:04:22.009Z,28.40
2018-06-27T18:08:25.680Z,28.20
2018-06-27T18:12:29.359Z,28.00
2018-06-27T18:16:33.282Z,27.90
2018-06-27T18:20:36.960Z,27.80
2018-06-27T18:24:40.678Z,27.80
2018-06-27T18:28:47.260Z,27.70
2018-06-27T18:32:51.033Z,27.60
2018-06-27T18:36:54.709Z,27.50
2018-06-27T18:40:58.396Z,27.40
2018-06-27T18:45:02.077Z,27.20
2018-06-27T18:49:05.963Z,27.00
2018-06-27T18:53:09.681Z,26.80
2018-06-27T18:57:13.349Z,26.60
2018-06-27T19:01:16.997Z,26.40
2018-06-27T19:05:20.763Z,26.20
2018-06-27T19:09:24.477Z,26.00
2018-06-27T19:13:36.723Z,25.80
2018-06-27T19:17:40.960Z,25.60
2018-06-27T19:21:44.613Z,25.40
2018-06-27T19:25:48.307Z,25.20
2018-06-27T19:29:52.035Z,25.00
2018-06-27T19:33:55.773Z,24.80
2018-06-27T19:37:59.456Z,24.70
2018-06-27T19:42:03.125Z,24.50
2018-06-27T19:46:06.813Z,24.30
2018-06-27T19:50:10.489Z,24.10
2018-06-27T19:54:14.157Z,23.90
2018-06-27T19:58:17.879Z,23.70
2018-06-27T20:02:21.616Z,23.60
2018-06-27T20:06:25.270Z,23.40
2018-06-27T20:10:29.001Z,23.30
2018-06-27T20:14:32.811Z,23.10
2018-06-27T20:18:36.541Z,23.00
2018-06-27T20:22:40.193Z,22.80
2018-06-27T20:26:51.050Z,22.70
2018-06-27T20:30:54.752Z,22.60
2018-06-27T20:34:58.412Z,22.40
2018-06-27T20:39:02.116Z,22.30
2018-06-27T20:43:06.045Z,22.20
2018-06-27T20:47:09.758Z,22.00
2018-06-27T20:51:13.433Z,21.90
2018-06-27T20:55:17.118Z,21.80
2018-06-27T20:59:20.855Z,21.70
2018-06-27T21:03:24.564Z,21.50
2018-06-27T21:07:28.261Z,21.40
2018-06-27T21:11:31.959Z,21.20
2018-06-27T21:15:35.685Z,21.00
2018-06-27T21:19:39.368Z,20.90
2018-06-27T21:23:43.046Z,20.80
2018-06-27T21:27:46.688Z,20.60
2018-06-27T21:31:50.367Z,20.50
2018-06-27T21:35:54.048Z,20.50
2018-06-27T21:39:57.716Z,20.30
2018-06-27T21:44:01.372Z,20.30
2018-06-27T21:48:05.096Z,20.10
2018-06-27T21:52:08.778Z,20.00
2018-06-27T21:56:12.456Z,19.90
2018-06-27T22:00:17.405Z,19.80
2018-06-27T22:04:21.070Z,19.70
2018-06-27T22:08:24.711Z,19.60
2018-06-27T22:12:28.392Z,19.50
2018-06-27T22:16:32.125Z,19.40
2018-06-27T22:20:35.827Z,19.40
2018-06-27T22:24:39.550Z,19.30
2018-06-27T22:28:43.229Z,19.20
2018-06-27T22:32:46.929Z,19.10
2018-06-27T22:40:53.944Z,19.00
2018-06-27T22:44:57.716Z,18.90
2018-06-27T22:49:01.357Z,18.80
2018-06-27T22:53:05.115Z,18.70
2018-06-27T22:57:08.919Z,18.60
2018-06-27T23:01:12.584Z,18.50
2018-06-27T23:05:16.264Z,18.50
2018-06-27T23:09:19.905Z,18.40
2018-06-27T23:13:23.600Z,18.30
2018-06-27T23:17:27.315Z,18.20
2018-06-27T23:21:30.986Z,18.10
2018-06-27T23:25:34.645Z,18.00
2018-06-27T23:29:38.418Z,18.00
2018-06-27T23:33:42.077Z,17.90
2018-06-27T23:37:45.769Z,17.80
2018-06-27T23:41:49.463Z,17.80
2018-06-27T23:45:53.191Z,17.70
2018-06-27T23:49:56.837Z,17.60
2018-06-27T23:54:00.533Z,17.60
2018-06-27T23:58:04.299Z,17.60
